Камери на живо
METAR for:LBWN (Varna Intl, VA, BU)
Text:LBWN 261730Z 04005KT 9999 SCT027 BKN030 OVC043 11/06 Q1026 NOSIG
Temperature: 11.0°C ( 52°F)
Dewpoint: 6.0°C ( 43°F) [RH = 71%]
Pressure (altimeter):30.30 inches Hg (1026.0 mb)
Winds:from the NE (40 degrees) at 6 MPH (5 knots; 2.6 m/s)
Visibility:6 or more sm (10+ km)
Ceiling:3000 feet AGL
Clouds: scattered clouds at 2700 feet AGL, broken clouds at 3000 feet AGL, overcast cloud deck at 4300 feet AGL

TAF for:LBWN (Varna Intl, VA, BU) issued at 1700 UTC 26 Oct 2021
Text:TAF LBWN 261700Z 2618/2718 04010KT 9999 SCT030 BKN040
Forecast period:1800 UTC 26 October 2021 to 1800 UTC 27 October 2021
Forecast type:FROM: standard forecast or significant change
Winds:from the NE (40 degrees) at 12 MPH (10 knots; 5.1 m/s)
Visibility:6 or more sm (10+ km)
Ceiling:4000 feet AGL
Clouds: scattered clouds at 3000 feet AGL, broken clouds at 4000 feet AGL
Text:TEMPO 2700/2706 3000 BR SCT010
Forecast period:0000 to 0600 UTC 27 October 2021
Forecast type:TEMPORARY: The following changes expected for less than half the time period
Visibility: 1.86 sm ( 2.99 km)
Ceiling:at least 12,000 feet AGL
Clouds: scattered clouds at 1000 feet AGL
Weather:BR (mist)